Weather at Taylor Airport

Public forecast

Using degrees Fahrenheit for public forecast. Weather courtesy of forecast.io.

Closest aviation weather report (METAR) to Taylor Airport

Closest report is Morrisville-Stowe State Airport, 7.2 nm (13.3 km) SW.

2024/07/25 08:54 (retrieved 45 minutes ago)

KMVL 250854Z AUTO 14003KT 10SM FEW032 SCT080 BKN110 19/18 A2999 RMK AO2 SLP153 60001 T01890178 55008

Closest aviation forecast (TAF) to Taylor Airport

Closest forecast is Northeast Kingdom International Airport, 20.0 nm (37.0 km) NNE.

2024/07/25 06:33 (retrieved 3 hours ago)

TAF KEFK 250530Z 2506/2606 17007KT P6SM BKN018 FM251200 19006KT P6SM VCSH BKN021 FM251500 24008KT P6SM BKN035 FM260000 27006KT P6SM SCT030 FM260200 28007KT P6SM BKN030